Daglege Rapportar

Klikk her for oppdatering!


Detaljar i dag

12/7/20
Time         Wind Dir   Wind Spd  Wind Gust   Humidity       Temp  Raw Barom   Tot Rain Temp Out H Temp Out L  DailyRain   HourRain
                            mps        mps          %         C         mb         mm         C         C         mm         mm
0:00              298          2          6         73       10.7    1020.48     616.40       10.7       10.7       0.00       0.00
1:00              333          1          4         77       10.3    1020.69     616.40       10.8       10.2       0.00       0.00
2:00              340          1          5         76       10.6    1020.96     616.40       10.8       10.2       0.00       0.00
3:00              355          1          5         77       10.2    1021.12     616.40       10.8       10.2       0.00       0.00
4:00                9          1          4         75       10.4    1020.99     616.40       10.8       10.1       0.00       0.00
5:00              301          2          3         74       10.6    1020.85     616.40       10.8       10.1       0.00       0.00
6:00               28          0          1         78       10.4    1020.75     616.40       10.8       10.1       0.00       0.00
7:00               17          0          1         80       10.6    1020.72     616.40       10.8       10.1       0.00       0.00
8:00                9          0          1         80       10.7    1020.75     616.40       10.8       10.1       0.00       0.00

 


Detaljar i gr

11/7/20
Time         Wind Dir   Wind Spd  Wind Gust   Humidity       Temp  Raw Barom   Tot Rain Temp Out H Temp Out L  DailyRain   HourRain
                            mps        mps          %         C         mb         mm         C         C         mm         mm
0:00              360          2          5         72       12.4    1013.12     616.20       12.4       12.4       0.00       0.00
1:00              346          0          4         69       12.3    1013.52     616.20       12.5       12.2       0.00       0.00
2:00              311          0          5         71       12.2    1013.69     616.20       12.5       12.2       0.00       0.00
3:00              360          4          5         70       11.7    1013.83     616.20       12.5       11.6       0.00       0.00
4:00              350          1          6         79       10.6    1014.16     616.20       12.5       10.6       0.00       0.00
5:00              343          1          4         75       11.2    1014.33     616.20       12.5       10.6       0.00       0.00
6:00              339          1          6         74       11.2    1014.84     616.20       12.5       10.6       0.00       0.00
7:00              349          3          5         71       11.4    1015.18     616.20       12.5       10.6       0.00       0.00
8:00              355          2          7         80       10.3    1015.79     616.40       12.5       10.1       0.20       0.20
9:00               71          1          6         73       11.6    1016.29     616.40       12.5       10.1       0.20       0.00
10:00             336          1          4         65       12.3    1016.66     616.40       12.5       10.1       0.20       0.00
11:00             303          4          5         62       12.8    1016.80     616.40       12.8       10.1       0.20       0.00
12:00             360          1          4         68       12.8    1017.21     616.40       13.0       10.1       0.20       0.00
13:00             360          2          4         73       11.8    1017.91     616.40       13.1       10.1       0.20       0.00
14:00             360          2          5         73       12.3    1018.35     616.40       13.1       10.1       0.20       0.00
15:00              27          1          5         67       13.6    1018.56     616.40       13.6       10.1       0.20       0.00
16:00             360          2          6         65       13.4    1018.79     616.40       14.9       10.1       0.20       0.00
17:00             128          0          7         67       14.0    1018.62     616.40       14.9       10.1       0.20       0.00
18:00             349          1          4         69       13.8    1018.76     616.40       14.9       10.1       0.20       0.00
19:00             360          1          6         68       12.7    1019.06     616.40       14.9       10.1       0.20       0.00
20:00             360          1          6         67       12.3    1019.40     616.40       14.9       10.1       0.20       0.00
21:00             340          1          4         73       11.5    1019.74     616.40       14.9       10.1       0.20       0.00
22:00               5          1          4         80       10.9    1020.28     616.40       14.9       10.1       0.20       0.00
23:00             360          4          5         75       10.6    1020.42     616.40       14.9       10.1       0.20       0.00